sensor_id;sensor_type;location;lat;lon;timestamp;pressure;altitude;pressure_sealevel;temperature;humidity
70011;BME280;59543;37.950;-122.338;2023-02-14T00:01:07;101021.19;;;14.60;50.46
70011;BME280;59543;37.950;-122.338;2023-02-14T00:03:33;101019.63;;;14.41;50.85
70011;BME280;59543;37.950;-122.338;2023-02-14T00:06:04;101009.28;;;14.45;51.26
70011;BME280;59543;37.950;-122.338;2023-02-14T00:08:29;101019.63;;;14.41;52.03
70011;BME280;59543;37.950;-122.338;2023-02-14T00:10:56;101023.16;;;14.41;51.48
70011;BME280;59543;37.950;-122.338;2023-02-14T00:13:22;101021.44;;;14.40;51.59
70011;BME280;59543;37.950;-122.338;2023-02-14T00:15:47;101024.50;;;14.29;52.37
70011;BME280;59543;37.950;-122.338;2023-02-14T00:18:13;101023.97;;;14.17;51.65
70011;BME280;59543;37.950;-122.338;2023-02-14T00:20:39;101026.78;;;14.08;52.60
70011;BME280;59543;37.950;-122.338;2023-02-14T00:23:05;101018.94;;;13.80;52.89
70011;BME280;59543;37.950;-122.338;2023-02-14T00:25:32;101029.03;;;13.70;53.51
70011;BME280;59543;37.950;-122.338;2023-02-14T00:27:58;101019.91;;;13.63;53.72
70011;BME280;59543;37.950;-122.338;2023-02-14T00:30:24;101015.44;;;13.54;53.41
70011;BME280;59543;37.950;-122.338;2023-02-14T00:32:49;101020.50;;;13.48;53.65
70011;BME280;59543;37.950;-122.338;2023-02-14T00:35:15;101020.13;;;13.43;54.10
70011;BME280;59543;37.950;-122.338;2023-02-14T00:37:41;101020.25;;;13.34;53.88
70011;BME280;59543;37.950;-122.338;2023-02-14T00:40:07;101024.44;;;13.28;53.38
70011;BME280;59543;37.950;-122.338;2023-02-14T00:42:33;101031.22;;;13.14;54.20
70011;BME280;59543;37.950;-122.338;2023-02-14T00:44:59;101023.13;;;13.14;54.26
70011;BME280;59543;37.950;-122.338;2023-02-14T00:47:25;101029.09;;;13.18;54.04
70011;BME280;59543;37.950;-122.338;2023-02-14T00:49:51;101035.25;;;13.10;54.00
70011;BME280;59543;37.950;-122.338;2023-02-14T00:52:17;101023.41;;;13.03;53.48
70011;BME280;59543;37.950;-122.338;2023-02-14T00:54:43;101028.25;;;12.99;54.24
70011;BME280;59543;37.950;-122.338;2023-02-14T00:57:08;101022.66;;;12.93;55.01
70011;BME280;59543;37.950;-122.338;2023-02-14T00:59:34;101019.81;;;12.94;54.64
70011;BME280;59543;37.950;-122.338;2023-02-14T01:02:00;101013.59;;;12.76;54.37
70011;BME280;59543;37.950;-122.338;2023-02-14T01:04:26;101021.44;;;12.69;55.13
70011;BME280;59543;37.950;-122.338;2023-02-14T01:06:52;101035.72;;;12.62;55.37
70011;BME280;59543;37.950;-122.338;2023-02-14T01:09:18;101020.84;;;12.57;56.15
70011;BME280;59543;37.950;-122.338;2023-02-14T01:11:43;101030.03;;;12.47;55.76
70011;BME280;59543;37.950;-122.338;2023-02-14T01:14:09;101033.13;;;12.34;55.93
70011;BME280;59543;37.950;-122.338;2023-02-14T01:16:37;101021.59;;;12.14;56.17
70011;BME280;59543;37.950;-122.338;2023-02-14T01:19:03;101022.63;;;12.13;56.04
70011;BME280;59543;37.950;-122.338;2023-02-14T01:21:31;101030.38;;;11.98;56.84
70011;BME280;59543;37.950;-122.338;2023-02-14T01:23:59;101018.88;;;11.96;56.45
70011;BME280;59543;37.950;-122.338;2023-02-14T01:26:25;101025.88;;;11.89;56.98
70011;BME280;59543;37.950;-122.338;2023-02-14T01:28:51;101029.16;;;11.83;56.63
70011;BME280;59543;37.950;-122.338;2023-02-14T01:31:21;101047.75;;;11.76;56.61
70011;BME280;59543;37.950;-122.338;2023-02-14T01:33:47;101048.03;;;11.73;57.17
70011;BME280;59543;37.950;-122.338;2023-02-14T01:36:14;101060.88;;;11.61;57.62
70011;BME280;59543;37.950;-122.338;2023-02-14T01:38:40;101033.38;;;11.58;57.30
70011;BME280;59543;37.950;-122.338;2023-02-14T01:41:06;101043.47;;;11.56;57.82
70011;BME280;59543;37.950;-122.338;2023-02-14T01:43:48;101032.13;;;11.52;57.64
70011;BME280;59543;37.950;-122.338;2023-02-14T01:46:14;101041.53;;;11.38;57.84
70011;BME280;59543;37.950;-122.338;2023-02-14T01:48:39;101047.75;;;11.39;57.52
70011;BME280;59543;37.950;-122.338;2023-02-14T01:51:05;101054.31;;;11.27;57.52
70011;BME280;59543;37.950;-122.338;2023-02-14T01:53:32;101069.09;;;11.13;57.61
70011;BME280;59543;37.950;-122.338;2023-02-14T01:56:08;101065.25;;;11.15;57.84
70011;BME280;59543;37.950;-122.338;2023-02-14T01:58:37;101069.97;;;11.13;57.54
70011;BME280;59543;37.950;-122.338;2023-02-14T02:01:04;101091.19;;;11.07;58.07
70011;BME280;59543;37.950;-122.338;2023-02-14T02:03:36;101098.59;;;11.05;57.87
70011;BME280;59543;37.950;-122.338;2023-02-14T02:08:29;101116.44;;;10.96;58.26
70011;BME280;59543;37.950;-122.338;2023-02-14T02:10:55;101111.06;;;10.96;57.70
70011;BME280;59543;37.950;-122.338;2023-02-14T02:13:21;101105.41;;;10.89;57.98
70011;BME280;59543;37.950;-122.338;2023-02-14T02:15:57;101107.50;;;10.86;57.96
70011;BME280;59543;37.950;-122.338;2023-02-14T02:18:31;101113.47;;;10.89;57.82
70011;BME280;59543;37.950;-122.338;2023-02-14T02:23:46;101116.03;;;10.71;58.52
70011;BME280;59543;37.950;-122.338;2023-02-14T02:26:32;101124.22;;;10.70;58.09
70011;BME280;59543;37.950;-122.338;2023-02-14T02:36:46;101139.91;;;10.65;57.93
70011;BME280;59543;37.950;-122.338;2023-02-14T02:41:53;101151.78;;;10.52;58.66
70011;BME280;59543;37.950;-122.338;2023-02-14T02:49:32;101151.25;;;10.18;59.32
70011;BME280;59543;37.950;-122.338;2023-02-14T02:52:27;101147.47;;;10.21;59.30
70011;BME280;59543;37.950;-122.338;2023-02-14T02:58:18;101136.63;;;10.01;60.66
70011;BME280;59543;37.950;-122.338;2023-02-14T03:00:45;101123.19;;;10.01;60.19
70011;BME280;59543;37.950;-122.338;2023-02-14T03:03:13;101112.59;;;10.10;60.27
70011;BME280;59543;37.950;-122.338;2023-02-14T03:05:58;101121.50;;;10.10;60.29
70011;BME280;59543;37.950;-122.338;2023-02-14T03:08:24;101126.91;;;10.10;60.71
70011;BME280;59543;37.950;-122.338;2023-02-14T03:10:50;101135.97;;;10.09;61.21
70011;BME280;59543;37.950;-122.338;2023-02-14T03:15:49;101134.00;;;10.21;59.98
70011;BME280;59543;37.950;-122.338;2023-02-14T03:21:07;101164.81;;;10.17;59.28
70011;BME280;59543;37.950;-122.338;2023-02-14T03:23:42;101165.25;;;10.12;58.62
70011;BME280;59543;37.950;-122.338;2023-02-14T03:26:13;101179.41;;;10.14;58.60
70011;BME280;59543;37.950;-122.338;2023-02-14T03:42:03;101199.09;;;10.15;58.14
70011;BME280;59543;37.950;-122.338;2023-02-14T03:44:31;101199.66;;;10.18;57.71
70011;BME280;59543;37.950;-122.338;2023-02-14T03:46:59;101183.19;;;10.33;56.96
70011;BME280;59543;37.950;-122.338;2023-02-14T03:49:28;101195.34;;;10.27;57.29
70011;BME280;59543;37.950;-122.338;2023-02-14T03:51:55;101204.88;;;10.20;57.89
70011;BME280;59543;37.950;-122.338;2023-02-14T03:54:23;101200.22;;;10.22;57.93
70011;BME280;59543;37.950;-122.338;2023-02-14T03:56:51;101219.63;;;10.25;57.91
70011;BME280;59543;37.950;-122.338;2023-02-14T03:59:22;101222.16;;;10.17;58.81
70011;BME280;59543;37.950;-122.338;2023-02-14T04:04:34;101224.09;;;10.05;58.05
70011;BME280;59543;37.950;-122.338;2023-02-14T04:07:11;101240.34;;;10.35;55.71
70011;BME280;59543;37.950;-122.338;2023-02-14T04:09:37;101241.66;;;10.19;55.24
70011;BME280;59543;37.950;-122.338;2023-02-14T04:12:03;101239.50;;;10.34;54.42
70011;BME280;59543;37.950;-122.338;2023-02-14T04:14:29;101243.31;;;10.32;54.99
70011;BME280;59543;37.950;-122.338;2023-02-14T04:16:55;101249.69;;;10.30;54.28
70011;BME280;59543;37.950;-122.338;2023-02-14T04:19:39;101256.91;;;10.30;54.78
70011;BME280;59543;37.950;-122.338;2023-02-14T04:22:05;101255.19;;;10.60;52.08
70011;BME280;59543;37.950;-122.338;2023-02-14T04:24:31;101242.97;;;10.56;52.05
70011;BME280;59543;37.950;-122.338;2023-02-14T04:26:56;101240.72;;;10.51;52.49
70011;BME280;59543;37.950;-122.338;2023-02-14T04:29:38;101255.78;;;10.33;52.72
70011;BME280;59543;37.950;-122.338;2023-02-14T04:32:05;101254.28;;;10.49;52.46
70011;BME280;59543;37.950;-122.338;2023-02-14T04:34:31;101260.94;;;10.24;52.68
70011;BME280;59543;37.950;-122.338;2023-02-14T04:36:57;101260.44;;;10.30;51.77
70011;BME280;59543;37.950;-122.338;2023-02-14T04:39:22;101254.50;;;10.27;52.98
70011;BME280;59543;37.950;-122.338;2023-02-14T04:41:48;101245.09;;;10.21;52.68
70011;BME280;59543;37.950;-122.338;2023-02-14T04:44:14;101267.44;;;10.22;52.57
70011;BME280;59543;37.950;-122.338;2023-02-14T04:46:40;101283.06;;;10.07;53.22
70011;BME280;59543;37.950;-122.338;2023-02-14T04:49:06;101287.13;;;10.01;54.44
70011;BME280;59543;37.950;-122.338;2023-02-14T04:51:31;101275.84;;;10.07;54.29
70011;BME280;59543;37.950;-122.338;2023-02-14T04:53:57;101277.56;;;10.08;51.63
70011;BME280;59543;37.950;-122.338;2023-02-14T04:56:23;101274.31;;;10.05;51.26
70011;BME280;59543;37.950;-122.338;2023-02-14T04:58:51;101281.16;;;9.98;51.32
70011;BME280;59543;37.950;-122.338;2023-02-14T05:01:17;101293.69;;;10.08;49.45
70011;BME280;59543;37.950;-122.338;2023-02-14T05:03:43;101285.16;;;10.03;49.54
70011;BME280;59543;37.950;-122.338;2023-02-14T05:06:09;101300.19;;;10.06;49.33
70011;BME280;59543;37.950;-122.338;2023-02-14T05:08:35;101310.94;;;10.06;49.02
70011;BME280;59543;37.950;-122.338;2023-02-14T05:11:01;101298.50;;;10.05;48.92
70011;BME280;59543;37.950;-122.338;2023-02-14T05:13:26;101311.78;;;10.06;48.03
70011;BME280;59543;37.950;-122.338;2023-02-14T05:15:53;101307.25;;;10.07;48.48
70011;BME280;59543;37.950;-122.338;2023-02-14T05:18:19;101310.34;;;10.02;48.76
70011;BME280;59543;37.950;-122.338;2023-02-14T05:20:47;101308.78;;;10.00;49.12
70011;BME280;59543;37.950;-122.338;2023-02-14T05:23:13;101305.34;;;9.98;48.98
70011;BME280;59543;37.950;-122.338;2023-02-14T05:25:39;101314.28;;;9.98;48.54
70011;BME280;59543;37.950;-122.338;2023-02-14T05:28:05;101319.22;;;9.93;49.13
70011;BME280;59543;37.950;-122.338;2023-02-14T05:30:31;101314.47;;;9.85;49.89
70011;BME280;59543;37.950;-122.338;2023-02-14T05:32:57;101324.97;;;9.89;49.54
70011;BME280;59543;37.950;-122.338;2023-02-14T05:35:23;101333.22;;;9.76;49.74
70011;BME280;59543;37.950;-122.338;2023-02-14T05:37:49;101323.59;;;9.94;49.48
70011;BME280;59543;37.950;-122.338;2023-02-14T05:40:15;101327.66;;;9.89;48.71
70011;BME280;59543;37.950;-122.338;2023-02-14T05:42:41;101325.91;;;9.99;48.22
70011;BME280;59543;37.950;-122.338;2023-02-14T05:45:07;101336.69;;;9.88;46.84
70011;BME280;59543;37.950;-122.338;2023-02-14T05:47:33;101348.28;;;9.88;48.60
70011;BME280;59543;37.950;-122.338;2023-02-14T05:49:59;101351.63;;;9.80;48.76
70011;BME280;59543;37.950;-122.338;2023-02-14T05:52:25;101354.22;;;9.71;49.38
70011;BME280;59543;37.950;-122.338;2023-02-14T05:54:51;101371.56;;;9.78;49.21
70011;BME280;59543;37.950;-122.338;2023-02-14T05:57:17;101362.88;;;9.74;49.06
70011;BME280;59543;37.950;-122.338;2023-02-14T05:59:43;101369.75;;;9.67;48.81
70011;BME280;59543;37.950;-122.338;2023-02-14T06:02:09;101377.72;;;9.57;50.37
70011;BME280;59543;37.950;-122.338;2023-02-14T06:04:35;101382.09;;;9.70;48.41
70011;BME280;59543;37.950;-122.338;2023-02-14T06:07:00;101385.38;;;9.73;48.33
70011;BME280;59543;37.950;-122.338;2023-02-14T06:09:26;101388.94;;;9.62;48.37
70011;BME280;59543;37.950;-122.338;2023-02-14T06:11:52;101385.53;;;9.60;47.58
70011;BME280;59543;37.950;-122.338;2023-02-14T06:14:18;101381.28;;;9.58;47.76
70011;BME280;59543;37.950;-122.338;2023-02-14T06:16:44;101379.09;;;9.52;47.09
70011;BME280;59543;37.950;-122.338;2023-02-14T06:19:09;101392.13;;;9.56;47.00
70011;BME280;59543;37.950;-122.338;2023-02-14T06:21:35;101393.34;;;9.64;46.05
70011;BME280;59543;37.950;-122.338;2023-02-14T06:24:01;101390.66;;;9.64;45.90
70011;BME280;59543;37.950;-122.338;2023-02-14T06:26:27;101398.13;;;9.49;46.74
70011;BME280;59543;37.950;-122.338;2023-02-14T06:28:54;101396.31;;;9.49;46.42
70011;BME280;59543;37.950;-122.338;2023-02-14T06:31:20;101392.63;;;9.50;45.67
70011;BME280;59543;37.950;-122.338;2023-02-14T06:33:46;101385.44;;;9.51;45.15
70011;BME280;59543;37.950;-122.338;2023-02-14T06:36:12;101404.50;;;9.48;45.80
70011;BME280;59543;37.950;-122.338;2023-02-14T06:38:38;101410.25;;;9.43;44.83
70011;BME280;59543;37.950;-122.338;2023-02-14T06:41:04;101413.53;;;9.47;44.65
70011;BME280;59543;37.950;-122.338;2023-02-14T06:43:31;101421.16;;;9.62;44.87
70011;BME280;59543;37.950;-122.338;2023-02-14T06:45:56;101416.19;;;9.47;44.11
70011;BME280;59543;37.950;-122.338;2023-02-14T06:48:22;101428.66;;;9.48;44.50
70011;BME280;59543;37.950;-122.338;2023-02-14T06:50:48;101427.59;;;9.39;44.57
70011;BME280;59543;37.950;-122.338;2023-02-14T06:53:14;101430.38;;;9.49;43.60
70011;BME280;59543;37.950;-122.338;2023-02-14T06:55:40;101433.44;;;9.33;44.42
70011;BME280;59543;37.950;-122.338;2023-02-14T06:58:06;101431.13;;;9.28;44.24
70011;BME280;59543;37.950;-122.338;2023-02-14T07:00:31;101442.97;;;9.37;43.85
70011;BME280;59543;37.950;-122.338;2023-02-14T07:02:57;101446.47;;;9.49;43.36
70011;BME280;59543;37.950;-122.338;2023-02-14T07:05:23;101435.41;;;9.31;44.23
70011;BME280;59543;37.950;-122.338;2023-02-14T07:07:49;101444.78;;;9.36;43.94
70011;BME280;59543;37.950;-122.338;2023-02-14T07:10:15;101437.00;;;9.33;44.06
70011;BME280;59543;37.950;-122.338;2023-02-14T07:12:41;101432.97;;;9.16;44.85
70011;BME280;59543;37.950;-122.338;2023-02-14T07:15:08;101435.03;;;9.13;45.13
70011;BME280;59543;37.950;-122.338;2023-02-14T07:17:34;101437.25;;;9.19;44.97
70011;BME280;59543;37.950;-122.338;2023-02-14T07:20:00;101431.38;;;9.14;45.28
70011;BME280;59543;37.950;-122.338;2023-02-14T07:22:26;101449.81;;;9.07;44.39
70011;BME280;59543;37.950;-122.338;2023-02-14T07:24:52;101439.22;;;9.06;44.39
70011;BME280;59543;37.950;-122.338;2023-02-14T07:27:18;101443.69;;;9.16;44.06
70011;BME280;59543;37.950;-122.338;2023-02-14T07:29:43;101438.97;;;9.09;44.86
70011;BME280;59543;37.950;-122.338;2023-02-14T07:32:09;101450.53;;;9.09;45.24
70011;BME280;59543;37.950;-122.338;2023-02-14T07:34:35;101449.31;;;9.02;45.84
70011;BME280;59543;37.950;-122.338;2023-02-14T07:37:01;101456.25;;;9.05;45.73
70011;BME280;59543;37.950;-122.338;2023-02-14T07:39:27;101457.25;;;9.04;44.18
70011;BME280;59543;37.950;-122.338;2023-02-14T07:41:53;101458.81;;;8.95;44.73
70011;BME280;59543;37.950;-122.338;2023-02-14T07:44:18;101458.47;;;8.88;45.69
70011;BME280;59543;37.950;-122.338;2023-02-14T07:46:44;101458.97;;;8.93;45.41
70011;BME280;59543;37.950;-122.338;2023-02-14T07:49:10;101467.00;;;8.93;44.77
70011;BME280;59543;37.950;-122.338;2023-02-14T07:51:36;101468.47;;;8.98;45.12
70011;BME280;59543;37.950;-122.338;2023-02-14T07:54:02;101470.88;;;8.78;45.87
70011;BME280;59543;37.950;-122.338;2023-02-14T07:56:28;101476.88;;;8.93;45.21
70011;BME280;59543;37.950;-122.338;2023-02-14T07:58:54;101469.91;;;8.79;45.23
70011;BME280;59543;37.950;-122.338;2023-02-14T08:01:19;101474.50;;;8.66;45.88
70011;BME280;59543;37.950;-122.338;2023-02-14T08:03:46;101476.25;;;8.67;45.23
70011;BME280;59543;37.950;-122.338;2023-02-14T08:06:14;101483.78;;;8.62;45.67
70011;BME280;59543;37.950;-122.338;2023-02-14T08:08:40;101485.59;;;8.61;45.23
70011;BME280;59543;37.950;-122.338;2023-02-14T08:11:06;101476.94;;;8.58;45.58
70011;BME280;59543;37.950;-122.338;2023-02-14T08:13:31;101482.03;;;8.50;45.82
70011;BME280;59543;37.950;-122.338;2023-02-14T08:15:57;101483.97;;;8.47;46.62
70011;BME280;59543;37.950;-122.338;2023-02-14T08:18:29;101479.81;;;8.43;46.16
70011;BME280;59543;37.950;-122.338;2023-02-14T08:20:56;101488.63;;;8.45;45.98
70011;BME280;59543;37.950;-122.338;2023-02-14T08:23:22;101488.41;;;8.36;45.70
70011;BME280;59543;37.950;-122.338;2023-02-14T08:25:49;101495.31;;;8.27;45.98
70011;BME280;59543;37.950;-122.338;2023-02-14T08:28:15;101499.69;;;8.41;46.29
70011;BME280;59543;37.950;-122.338;2023-02-14T08:30:41;101499.81;;;8.39;46.30
70011;BME280;59543;37.950;-122.338;2023-02-14T08:33:07;101507.31;;;8.34;47.26
70011;BME280;59543;37.950;-122.338;2023-02-14T08:35:33;101495.22;;;8.29;48.01
70011;BME280;59543;37.950;-122.338;2023-02-14T08:37:59;101492.88;;;8.24;47.00
70011;BME280;59543;37.950;-122.338;2023-02-14T08:40:25;101491.56;;;8.30;46.58
70011;BME280;59543;37.950;-122.338;2023-02-14T08:42:51;101494.31;;;8.17;46.46
70011;BME280;59543;37.950;-122.338;2023-02-14T08:45:17;101490.03;;;8.14;47.07
70011;BME280;59543;37.950;-122.338;2023-02-14T08:47:43;101482.59;;;8.18;46.23
70011;BME280;59543;37.950;-122.338;2023-02-14T08:50:12;101488.34;;;8.13;46.86
70011;BME280;59543;37.950;-122.338;2023-02-14T08:52:39;101486.50;;;8.14;47.23
70011;BME280;59543;37.950;-122.338;2023-02-14T08:55:05;101485.97;;;8.09;47.29
70011;BME280;59543;37.950;-122.338;2023-02-14T08:57:31;101485.97;;;8.09;47.14
70011;BME280;59543;37.950;-122.338;2023-02-14T08:59:57;101495.84;;;8.08;47.49
70011;BME280;59543;37.950;-122.338;2023-02-14T09:02:23;101495.56;;;8.00;47.71
70011;BME280;59543;37.950;-122.338;2023-02-14T09:04:49;101506.09;;;7.90;46.52
70011;BME280;59543;37.950;-122.338;2023-02-14T09:07:14;101497.75;;;7.82;47.02
70011;BME280;59543;37.950;-122.338;2023-02-14T09:09:40;101507.31;;;7.86;47.60
70011;BME280;59543;37.950;-122.338;2023-02-14T09:12:07;101507.75;;;7.80;47.19
70011;BME280;59543;37.950;-122.338;2023-02-14T09:14:34;101502.56;;;7.90;47.60
70011;BME280;59543;37.950;-122.338;2023-02-14T09:17:00;101501.66;;;7.78;47.96
70011;BME280;59543;37.950;-122.338;2023-02-14T09:19:30;101516.41;;;7.84;48.12
70011;BME280;59543;37.950;-122.338;2023-02-14T09:21:56;101510.06;;;7.61;48.75
70011;BME280;59543;37.950;-122.338;2023-02-14T09:24:22;101517.72;;;7.78;47.88
70011;BME280;59543;37.950;-122.338;2023-02-14T09:26:48;101507.91;;;7.66;47.55
70011;BME280;59543;37.950;-122.338;2023-02-14T09:29:14;101506.66;;;7.59;48.50
70011;BME280;59543;37.950;-122.338;2023-02-14T09:31:40;101512.00;;;7.46;48.19
70011;BME280;59543;37.950;-122.338;2023-02-14T09:34:06;101509.72;;;7.65;47.68
70011;BME280;59543;37.950;-122.338;2023-02-14T09:36:32;101514.97;;;7.67;47.58
70011;BME280;59543;37.950;-122.338;2023-02-14T09:39:16;101515.97;;;7.53;47.69
70011;BME280;59543;37.950;-122.338;2023-02-14T09:44:32;101518.44;;;7.56;47.50
70011;BME280;59543;37.950;-122.338;2023-02-14T09:46:58;101520.25;;;7.43;47.65
70011;BME280;59543;37.950;-122.338;2023-02-14T09:49:30;101521.19;;;7.54;47.92
70011;BME280;59543;37.950;-122.338;2023-02-14T09:51:57;101532.56;;;7.45;48.28
70011;BME280;59543;37.950;-122.338;2023-02-14T09:54:26;101533.53;;;7.44;47.85
70011;BME280;59543;37.950;-122.338;2023-02-14T09:59:35;101529.16;;;7.43;48.21
70011;BME280;59543;37.950;-122.338;2023-02-14T10:02:25;101533.84;;;7.40;48.31
70011;BME280;59543;37.950;-122.338;2023-02-14T10:10:26;101541.16;;;7.25;48.72
70011;BME280;59543;37.950;-122.338;2023-02-14T10:15:22;101542.53;;;7.30;48.54
70011;BME280;59543;37.950;-122.338;2023-02-14T10:17:51;101550.91;;;7.26;49.16
70011;BME280;59543;37.950;-122.338;2023-02-14T10:22:49;101554.03;;;7.20;49.77
70011;BME280;59543;37.950;-122.338;2023-02-14T10:27:46;101560.09;;;7.09;50.76
70011;BME280;59543;37.950;-122.338;2023-02-14T10:30:14;101550.47;;;7.06;50.81
70011;BME280;59543;37.950;-122.338;2023-02-14T10:48:50;101548.84;;;7.04;52.36
70011;BME280;59543;37.950;-122.338;2023-02-14T10:51:14;101547.06;;;7.04;51.95
70011;BME280;59543;37.950;-122.338;2023-02-14T10:58:34;101537.94;;;6.94;51.91
70011;BME280;59543;37.950;-122.338;2023-02-14T11:01:12;101538.69;;;6.96;52.08
70011;BME280;59543;37.950;-122.338;2023-02-14T11:03:39;101544.06;;;6.96;52.30
70011;BME280;59543;37.950;-122.338;2023-02-14T11:06:09;101549.19;;;6.86;53.01
70011;BME280;59543;37.950;-122.338;2023-02-14T11:08:36;101543.38;;;6.80;53.02
70011;BME280;59543;37.950;-122.338;2023-02-14T11:13:33;101545.19;;;6.79;52.55
70011;BME280;59543;37.950;-122.338;2023-02-14T11:16:00;101555.03;;;6.79;53.05
70011;BME280;59543;37.950;-122.338;2023-02-14T11:18:27;101554.06;;;6.80;53.58
70011;BME280;59543;37.950;-122.338;2023-02-14T11:21:01;101555.25;;;6.76;54.08
70011;BME280;59543;37.950;-122.338;2023-02-14T11:23:30;101567.16;;;6.84;52.96
70011;BME280;59543;37.950;-122.338;2023-02-14T11:25:57;101567.34;;;6.81;52.65
70011;BME280;59543;37.950;-122.338;2023-02-14T11:28:24;101583.50;;;6.80;53.08
70011;BME280;59543;37.950;-122.338;2023-02-14T11:30:51;101593.03;;;6.71;53.54
70011;BME280;59543;37.950;-122.338;2023-02-14T11:35:49;101593.09;;;6.70;53.75
70011;BME280;59543;37.950;-122.338;2023-02-14T11:38:35;101588.16;;;6.63;53.81
70011;BME280;59543;37.950;-122.338;2023-02-14T11:41:03;101591.06;;;6.73;53.24
70011;BME280;59543;37.950;-122.338;2023-02-14T11:43:32;101593.09;;;6.70;54.12
70011;BME280;59543;37.950;-122.338;2023-02-14T11:51:24;101582.75;;;6.78;52.11
70011;BME280;59543;37.950;-122.338;2023-02-14T11:53:51;101596.84;;;6.67;53.13
70011;BME280;59543;37.950;-122.338;2023-02-14T11:56:20;101603.31;;;6.50;53.86
70011;BME280;59543;37.950;-122.338;2023-02-14T11:58:52;101593.72;;;6.60;53.82
70011;BME280;59543;37.950;-122.338;2023-02-14T12:01:25;101588.16;;;6.63;53.93
70011;BME280;59543;37.950;-122.338;2023-02-14T12:03:53;101593.16;;;6.55;53.95
70011;BME280;59543;37.950;-122.338;2023-02-14T12:06:26;101598.31;;;6.58;53.59
70011;BME280;59543;37.950;-122.338;2023-02-14T12:09:12;101600.91;;;6.60;53.85
70011;BME280;59543;37.950;-122.338;2023-02-14T12:12:01;101609.69;;;6.62;54.11
70011;BME280;59543;37.950;-122.338;2023-02-14T12:14:30;101615.88;;;6.62;53.74
70011;BME280;59543;37.950;-122.338;2023-02-14T12:17:04;101614.75;;;6.52;54.14
70011;BME280;59543;37.950;-122.338;2023-02-14T12:19:34;101618.16;;;6.41;53.80
70011;BME280;59543;37.950;-122.338;2023-02-14T12:22:05;101615.72;;;6.51;53.62
70011;BME280;59543;37.950;-122.338;2023-02-14T12:24:32;101615.94;;;6.48;53.97
70011;BME280;59543;37.950;-122.338;2023-02-14T12:31:55;101636.22;;;6.38;53.43
70011;BME280;59543;37.950;-122.338;2023-02-14T12:34:23;101628.19;;;6.38;53.40
70011;BME280;59543;37.950;-122.338;2023-02-14T12:58:10;101657.78;;;6.35;52.46
70011;BME280;59543;37.950;-122.338;2023-02-14T13:11:05;101667.25;;;6.26;51.46
70011;BME280;59543;37.950;-122.338;2023-02-14T13:13:48;101681.75;;;6.22;50.93
70011;BME280;59543;37.950;-122.338;2023-02-14T13:19:12;101671.38;;;6.17;52.33
70011;BME280;59543;37.950;-122.338;2023-02-14T13:21:39;101669.09;;;6.11;52.43
70011;BME280;59543;37.950;-122.338;2023-02-14T13:26:39;101671.09;;;6.08;51.89
70011;BME280;59543;37.950;-122.338;2023-02-14T13:29:09;101670.13;;;6.09;51.89
70011;BME280;59543;37.950;-122.338;2023-02-14T13:31:35;101673.19;;;6.03;52.67
70011;BME280;59543;37.950;-122.338;2023-02-14T13:34:06;101682.84;;;6.05;52.23
70011;BME280;59543;37.950;-122.338;2023-02-14T13:36:33;101669.28;;;5.94;52.02
70011;BME280;59543;37.950;-122.338;2023-02-14T13:39:00;101670.22;;;6.07;51.85
70011;BME280;59543;37.950;-122.338;2023-02-14T13:41:27;101669.56;;;6.04;51.93
70011;BME280;59543;37.950;-122.338;2023-02-14T13:43:57;101669.94;;;5.98;50.22
70011;BME280;59543;37.950;-122.338;2023-02-14T13:48:58;101680.75;;;5.96;49.47
70011;BME280;59543;37.950;-122.338;2023-02-14T13:51:44;101682.22;;;5.86;50.40
70011;BME280;59543;37.950;-122.338;2023-02-14T14:10:45;101683.63;;;5.77;50.02
70011;BME280;59543;37.950;-122.338;2023-02-14T14:18:41;101687.53;;;5.71;50.56
70011;BME280;59543;37.950;-122.338;2023-02-14T14:21:26;101695.94;;;5.65;50.50
70011;BME280;59543;37.950;-122.338;2023-02-14T14:27:04;101700.16;;;5.69;50.84
70011;BME280;59543;37.950;-122.338;2023-02-14T14:31:55;101689.84;;;5.63;49.65
70011;BME280;59543;37.950;-122.338;2023-02-14T14:34:27;101704.59;;;5.55;49.70
70011;BME280;59543;37.950;-122.338;2023-02-14T14:37:00;101680.00;;;5.49;49.55
70011;BME280;59543;37.950;-122.338;2023-02-14T14:39:27;101706.97;;;5.59;48.20
70011;BME280;59543;37.950;-122.338;2023-02-14T14:41:53;101701.09;;;5.54;49.51
70011;BME280;59543;37.950;-122.338;2023-02-14T14:44:19;101700.31;;;5.52;48.49
70011;BME280;59543;37.950;-122.338;2023-02-14T14:46:44;101706.78;;;5.48;48.68
70011;BME280;59543;37.950;-122.338;2023-02-14T14:49:11;101712.63;;;5.55;49.28
70011;BME280;59543;37.950;-122.338;2023-02-14T14:51:37;101712.03;;;5.49;49.15
70011;BME280;59543;37.950;-122.338;2023-02-14T14:54:12;101708.25;;;5.54;48.52
70011;BME280;59543;37.950;-122.338;2023-02-14T14:56:49;101726.22;;;5.50;47.10
70011;BME280;59543;37.950;-122.338;2023-02-14T14:59:16;101747.56;;;5.50;46.36
70011;BME280;59543;37.950;-122.338;2023-02-14T15:01:43;101732.69;;;5.46;47.73
70011;BME280;59543;37.950;-122.338;2023-02-14T15:06:36;101737.84;;;5.49;47.84
70011;BME280;59543;37.950;-122.338;2023-02-14T15:09:12;101741.75;;;5.43;47.47
70011;BME280;59543;37.950;-122.338;2023-02-14T15:11:38;101751.38;;;5.46;47.52
70011;BME280;59543;37.950;-122.338;2023-02-14T15:14:23;101754.25;;;5.43;47.12
70011;BME280;59543;37.950;-122.338;2023-02-14T15:16:49;101765.75;;;5.43;47.79
70011;BME280;59543;37.950;-122.338;2023-02-14T15:19:17;101760.25;;;5.46;47.22